Terminal Aerodrome Forecast
Issued by NWS

Home | Current Version | Previous Version | Text Only | Print | Product List | Glossary On
Versions: 1 2 3 4 5 6 7 8 9 10 11 12 13 14 15 16
000
FTUS46 KMTR 031100
TAFMRY
TAF
KMRY 031120Z 0312/0412 22003KT P6SM OVC014
     FM031730 25005KT P6SM SCT015
     FM031900 25008KT P6SM SKC
     FM040400 25005KT P6SM BKN015=

USA.gov is the U.S. government's official web portal to all federal, state and local government web resources and services.